sensor_id;sensor_type;location;lat;lon;timestamp;temperature;humidity
2897;DHT22;1458;49.728;9.228;2022-08-03T00:01:40;16.70;99.90
2897;DHT22;1458;49.728;9.228;2022-08-03T00:04:09;16.80;99.90
2897;DHT22;1458;49.728;9.228;2022-08-03T00:06:37;16.70;99.90
2897;DHT22;1458;49.728;9.228;2022-08-03T00:09:05;16.60;99.90
2897;DHT22;1458;49.728;9.228;2022-08-03T00:11:33;16.60;99.90
2897;DHT22;1458;49.728;9.228;2022-08-03T00:14:01;16.70;99.90
2897;DHT22;1458;49.728;9.228;2022-08-03T00:16:28;16.60;99.90
2897;DHT22;1458;49.728;9.228;2022-08-03T00:19:01;16.70;99.90
2897;DHT22;1458;49.728;9.228;2022-08-03T00:21:28;16.60;99.90
2897;DHT22;1458;49.728;9.228;2022-08-03T00:23:56;16.50;99.90
2897;DHT22;1458;49.728;9.228;2022-08-03T00:26:23;16.40;99.90
2897;DHT22;1458;49.728;9.228;2022-08-03T00:28:50;16.40;99.90
2897;DHT22;1458;49.728;9.228;2022-08-03T00:31:18;16.40;99.90
2897;DHT22;1458;49.728;9.228;2022-08-03T00:33:45;16.40;99.90
2897;DHT22;1458;49.728;9.228;2022-08-03T00:36:14;16.50;99.90
2897;DHT22;1458;49.728;9.228;2022-08-03T00:38:42;16.50;99.90
2897;DHT22;1458;49.728;9.228;2022-08-03T00:41:09;16.60;99.90
2897;DHT22;1458;49.728;9.228;2022-08-03T00:43:38;16.40;99.90
2897;DHT22;1458;49.728;9.228;2022-08-03T00:46:05;16.40;99.90
2897;DHT22;1458;49.728;9.228;2022-08-03T00:48:33;16.30;99.90
2897;DHT22;1458;49.728;9.228;2022-08-03T00:51:01;16.20;99.90
2897;DHT22;1458;49.728;9.228;2022-08-03T00:53:34;16.20;99.90
2897;DHT22;1458;49.728;9.228;2022-08-03T00:56:04;16.20;99.90
2897;DHT22;1458;49.728;9.228;2022-08-03T00:58:31;16.20;99.90
2897;DHT22;1458;49.728;9.228;2022-08-03T01:00:59;16.20;99.90
2897;DHT22;1458;49.728;9.228;2022-08-03T01:03:26;16.20;99.90
2897;DHT22;1458;49.728;9.228;2022-08-03T01:05:59;16.30;99.90
2897;DHT22;1458;49.728;9.228;2022-08-03T01:08:40;16.20;99.90
2897;DHT22;1458;49.728;9.228;2022-08-03T01:11:15;16.10;99.90
2897;DHT22;1458;49.728;9.228;2022-08-03T01:13:50;16.10;99.90
2897;DHT22;1458;49.728;9.228;2022-08-03T01:16:27;16.10;99.90
2897;DHT22;1458;49.728;9.228;2022-08-03T01:19:01;16.00;99.90
2897;DHT22;1458;49.728;9.228;2022-08-03T01:21:47;16.00;99.90
2897;DHT22;1458;49.728;9.228;2022-08-03T01:24:36;16.10;99.90
2897;DHT22;1458;49.728;9.228;2022-08-03T01:27:13;16.20;99.90
2897;DHT22;1458;49.728;9.228;2022-08-03T01:30:04;16.20;99.90
2897;DHT22;1458;49.728;9.228;2022-08-03T01:32:40;16.10;99.90
2897;DHT22;1458;49.728;9.228;2022-08-03T01:35:11;16.00;99.90
2897;DHT22;1458;49.728;9.228;2022-08-03T01:37:44;16.10;99.90
2897;DHT22;1458;49.728;9.228;2022-08-03T01:40:15;16.10;99.90
2897;DHT22;1458;49.728;9.228;2022-08-03T01:42:45;16.00;99.90
2897;DHT22;1458;49.728;9.228;2022-08-03T01:45:16;15.80;99.90
2897;DHT22;1458;49.728;9.228;2022-08-03T01:47:45;15.70;99.90
2897;DHT22;1458;49.728;9.228;2022-08-03T01:50:14;16.00;99.90
2897;DHT22;1458;49.728;9.228;2022-08-03T01:52:46;16.30;99.90
2897;DHT22;1458;49.728;9.228;2022-08-03T01:55:17;16.40;99.90
2897;DHT22;1458;49.728;9.228;2022-08-03T01:57:47;16.40;99.90
2897;DHT22;1458;49.728;9.228;2022-08-03T02:00:17;16.50;99.90
2897;DHT22;1458;49.728;9.228;2022-08-03T02:02:46;16.50;99.90
2897;DHT22;1458;49.728;9.228;2022-08-03T02:05:16;16.50;99.90
2897;DHT22;1458;49.728;9.228;2022-08-03T02:07:47;16.50;99.90
2897;DHT22;1458;49.728;9.228;2022-08-03T02:10:17;16.40;99.90
2897;DHT22;1458;49.728;9.228;2022-08-03T02:12:46;16.30;99.90
2897;DHT22;1458;49.728;9.228;2022-08-03T02:15:18;16.30;99.90
2897;DHT22;1458;49.728;9.228;2022-08-03T02:17:46;16.40;99.90
2897;DHT22;1458;49.728;9.228;2022-08-03T02:20:15;16.40;99.90
2897;DHT22;1458;49.728;9.228;2022-08-03T02:22:43;16.40;99.90
2897;DHT22;1458;49.728;9.228;2022-08-03T02:25:14;16.40;99.90
2897;DHT22;1458;49.728;9.228;2022-08-03T02:27:47;16.40;99.90
2897;DHT22;1458;49.728;9.228;2022-08-03T02:30:19;16.30;99.90
2897;DHT22;1458;49.728;9.228;2022-08-03T02:32:52;16.30;99.90
2897;DHT22;1458;49.728;9.228;2022-08-03T02:35:23;16.30;99.90
2897;DHT22;1458;49.728;9.228;2022-08-03T02:37:56;16.30;99.90
2897;DHT22;1458;49.728;9.228;2022-08-03T02:40:28;16.30;99.90
2897;DHT22;1458;49.728;9.228;2022-08-03T02:42:59;16.20;99.90
2897;DHT22;1458;49.728;9.228;2022-08-03T02:45:31;16.20;99.90
2897;DHT22;1458;49.728;9.228;2022-08-03T02:48:03;16.10;99.90
2897;DHT22;1458;49.728;9.228;2022-08-03T02:50:33;16.10;99.90
2897;DHT22;1458;49.728;9.228;2022-08-03T02:53:02;16.10;99.90
2897;DHT22;1458;49.728;9.228;2022-08-03T02:55:31;16.10;99.90
2897;DHT22;1458;49.728;9.228;2022-08-03T02:58:02;16.00;99.90
2897;DHT22;1458;49.728;9.228;2022-08-03T03:00:32;16.10;99.90
2897;DHT22;1458;49.728;9.228;2022-08-03T03:03:02;16.00;99.90
2897;DHT22;1458;49.728;9.228;2022-08-03T03:05:31;16.10;99.90
2897;DHT22;1458;49.728;9.228;2022-08-03T03:07:59;16.00;99.90
2897;DHT22;1458;49.728;9.228;2022-08-03T03:10:26;15.90;99.90
2897;DHT22;1458;49.728;9.228;2022-08-03T03:12:56;16.00;99.90
2897;DHT22;1458;49.728;9.228;2022-08-03T03:15:26;16.10;99.90
2897;DHT22;1458;49.728;9.228;2022-08-03T03:17:58;16.10;99.90
2897;DHT22;1458;49.728;9.228;2022-08-03T03:20:27;16.00;99.90
2897;DHT22;1458;49.728;9.228;2022-08-03T03:22:58;16.00;99.90
2897;DHT22;1458;49.728;9.228;2022-08-03T03:25:27;15.90;99.90
2897;DHT22;1458;49.728;9.228;2022-08-03T03:27:55;16.00;99.90
2897;DHT22;1458;49.728;9.228;2022-08-03T03:30:23;15.90;99.90
2897;DHT22;1458;49.728;9.228;2022-08-03T03:32:51;15.90;99.90
2897;DHT22;1458;49.728;9.228;2022-08-03T03:35:20;15.90;99.90
2897;DHT22;1458;49.728;9.228;2022-08-03T03:37:48;15.90;99.90
2897;DHT22;1458;49.728;9.228;2022-08-03T03:40:15;15.80;99.90
2897;DHT22;1458;49.728;9.228;2022-08-03T03:42:44;15.80;99.90
2897;DHT22;1458;49.728;9.228;2022-08-03T03:45:12;15.90;99.90
2897;DHT22;1458;49.728;9.228;2022-08-03T03:47:39;15.90;99.90
2897;DHT22;1458;49.728;9.228;2022-08-03T03:50:07;15.90;99.90
2897;DHT22;1458;49.728;9.228;2022-08-03T03:52:37;15.90;99.90
2897;DHT22;1458;49.728;9.228;2022-08-03T03:55:05;15.90;99.90
2897;DHT22;1458;49.728;9.228;2022-08-03T03:57:33;15.90;99.90
2897;DHT22;1458;49.728;9.228;2022-08-03T04:00:01;15.80;99.90
2897;DHT22;1458;49.728;9.228;2022-08-03T04:02:30;15.80;99.90
2897;DHT22;1458;49.728;9.228;2022-08-03T04:04:57;15.80;99.90
2897;DHT22;1458;49.728;9.228;2022-08-03T04:07:52;15.80;99.90
2897;DHT22;1458;49.728;9.228;2022-08-03T04:10:45;15.90;99.90
2897;DHT22;1458;49.728;9.228;2022-08-03T04:13:29;15.90;99.90
2897;DHT22;1458;49.728;9.228;2022-08-03T04:16:01;15.90;99.90
2897;DHT22;1458;49.728;9.228;2022-08-03T04:18:33;16.00;99.90
2897;DHT22;1458;49.728;9.228;2022-08-03T04:21:08;15.90;99.90
2897;DHT22;1458;49.728;9.228;2022-08-03T04:23:41;15.90;99.90
2897;DHT22;1458;49.728;9.228;2022-08-03T04:26:15;15.80;99.90
2897;DHT22;1458;49.728;9.228;2022-08-03T04:28:47;15.80;99.90
2897;DHT22;1458;49.728;9.228;2022-08-03T04:31:17;15.90;99.90
2897;DHT22;1458;49.728;9.228;2022-08-03T04:33:48;16.00;99.90
2897;DHT22;1458;49.728;9.228;2022-08-03T04:36:21;16.10;99.90
2897;DHT22;1458;49.728;9.228;2022-08-03T04:39:18;16.00;99.90
2897;DHT22;1458;49.728;9.228;2022-08-03T04:41:54;16.10;99.90
2897;DHT22;1458;49.728;9.228;2022-08-03T04:44:26;16.20;99.90
2897;DHT22;1458;49.728;9.228;2022-08-03T04:46:55;16.20;99.90
2897;DHT22;1458;49.728;9.228;2022-08-03T04:49:24;16.40;99.90
2897;DHT22;1458;49.728;9.228;2022-08-03T04:51:52;16.50;99.90
2897;DHT22;1458;49.728;9.228;2022-08-03T04:54:23;16.60;99.90
2897;DHT22;1458;49.728;9.228;2022-08-03T04:56:50;16.60;99.90
2897;DHT22;1458;49.728;9.228;2022-08-03T04:59:18;16.70;99.90
2897;DHT22;1458;49.728;9.228;2022-08-03T05:01:45;16.70;99.90
2897;DHT22;1458;49.728;9.228;2022-08-03T05:04:13;16.70;99.90
2897;DHT22;1458;49.728;9.228;2022-08-03T05:06:41;16.80;99.90
2897;DHT22;1458;49.728;9.228;2022-08-03T05:09:09;16.80;99.90
2897;DHT22;1458;49.728;9.228;2022-08-03T05:11:38;16.90;99.90
2897;DHT22;1458;49.728;9.228;2022-08-03T05:14:07;17.00;99.90
2897;DHT22;1458;49.728;9.228;2022-08-03T05:16:34;17.00;99.90
2897;DHT22;1458;49.728;9.228;2022-08-03T05:19:02;17.00;99.90
2897;DHT22;1458;49.728;9.228;2022-08-03T05:21:29;17.10;99.90
2897;DHT22;1458;49.728;9.228;2022-08-03T05:23:57;17.10;99.80
2897;DHT22;1458;49.728;9.228;2022-08-03T05:26:24;17.20;99.60
2897;DHT22;1458;49.728;9.228;2022-08-03T05:28:54;17.30;99.40
2897;DHT22;1458;49.728;9.228;2022-08-03T05:31:21;17.70;98.70
2897;DHT22;1458;49.728;9.228;2022-08-03T05:33:49;19.00;95.40
2897;DHT22;1458;49.728;9.228;2022-08-03T05:36:17;20.50;90.60
2897;DHT22;1458;49.728;9.228;2022-08-03T05:38:44;21.50;86.10
2897;DHT22;1458;49.728;9.228;2022-08-03T05:41:12;22.20;81.80
2897;DHT22;1458;49.728;9.228;2022-08-03T05:43:40;22.60;77.90
2897;DHT22;1458;49.728;9.228;2022-08-03T05:46:10;22.70;77.60
2897;DHT22;1458;49.728;9.228;2022-08-03T05:48:37;22.60;76.20
2897;DHT22;1458;49.728;9.228;2022-08-03T05:51:05;22.40;76.40
2897;DHT22;1458;49.728;9.228;2022-08-03T05:53:36;22.20;76.10
2897;DHT22;1458;49.728;9.228;2022-08-03T05:56:04;21.70;77.50
2897;DHT22;1458;49.728;9.228;2022-08-03T05:58:32;21.50;79.30
2897;DHT22;1458;49.728;9.228;2022-08-03T06:00:59;21.30;80.10
2897;DHT22;1458;49.728;9.228;2022-08-03T06:03:28;21.20;80.60
2897;DHT22;1458;49.728;9.228;2022-08-03T06:05:55;21.20;81.00
2897;DHT22;1458;49.728;9.228;2022-08-03T06:08:23;21.20;81.40
2897;DHT22;1458;49.728;9.228;2022-08-03T06:10:50;21.10;82.90
2897;DHT22;1458;49.728;9.228;2022-08-03T06:13:18;21.30;79.80
2897;DHT22;1458;49.728;9.228;2022-08-03T06:15:47;21.20;79.10
2897;DHT22;1458;49.728;9.228;2022-08-03T06:18:14;21.30;79.40
2897;DHT22;1458;49.728;9.228;2022-08-03T06:20:43;21.20;79.60
2897;DHT22;1458;49.728;9.228;2022-08-03T06:23:11;21.40;79.40
2897;DHT22;1458;49.728;9.228;2022-08-03T06:25:38;21.60;79.50
2897;DHT22;1458;49.728;9.228;2022-08-03T06:28:06;21.70;78.10
2897;DHT22;1458;49.728;9.228;2022-08-03T06:30:34;21.40;79.10
2897;DHT22;1458;49.728;9.228;2022-08-03T06:33:01;21.50;80.50
2897;DHT22;1458;49.728;9.228;2022-08-03T06:35:29;21.50;81.20
2897;DHT22;1458;49.728;9.228;2022-08-03T06:37:58;21.60;80.10
2897;DHT22;1458;49.728;9.228;2022-08-03T06:40:25;21.70;78.00
2897;DHT22;1458;49.728;9.228;2022-08-03T06:42:56;21.70;77.80
2897;DHT22;1458;49.728;9.228;2022-08-03T06:45:24;21.70;79.00
2897;DHT22;1458;49.728;9.228;2022-08-03T06:48:00;21.80;77.90
2897;DHT22;1458;49.728;9.228;2022-08-03T06:50:28;22.00;77.70
2897;DHT22;1458;49.728;9.228;2022-08-03T06:52:57;22.20;77.10
2897;DHT22;1458;49.728;9.228;2022-08-03T06:55:25;22.30;76.70
2897;DHT22;1458;49.728;9.228;2022-08-03T06:57:53;22.50;76.40
2897;DHT22;1458;49.728;9.228;2022-08-03T07:00:21;22.60;75.00
2897;DHT22;1458;49.728;9.228;2022-08-03T07:02:48;22.40;74.70
2897;DHT22;1458;49.728;9.228;2022-08-03T07:05:16;22.40;74.40
2897;DHT22;1458;49.728;9.228;2022-08-03T07:07:44;22.40;75.10
2897;DHT22;1458;49.728;9.228;2022-08-03T07:10:12;22.70;74.50
2897;DHT22;1458;49.728;9.228;2022-08-03T07:12:40;22.80;73.00
2897;DHT22;1458;49.728;9.228;2022-08-03T07:15:08;22.50;73.10
2897;DHT22;1458;49.728;9.228;2022-08-03T07:17:36;22.70;74.30
2897;DHT22;1458;49.728;9.228;2022-08-03T07:20:05;22.60;73.50
2897;DHT22;1458;49.728;9.228;2022-08-03T07:22:34;22.70;73.00
2897;DHT22;1458;49.728;9.228;2022-08-03T07:25:02;23.00;72.60
2897;DHT22;1458;49.728;9.228;2022-08-03T07:27:31;23.30;70.50
2897;DHT22;1458;49.728;9.228;2022-08-03T07:29:59;23.20;72.00
2897;DHT22;1458;49.728;9.228;2022-08-03T07:32:27;23.60;70.00
2897;DHT22;1458;49.728;9.228;2022-08-03T07:34:56;23.40;69.60
2897;DHT22;1458;49.728;9.228;2022-08-03T07:37:23;23.30;69.10
2897;DHT22;1458;49.728;9.228;2022-08-03T07:39:50;23.50;69.10
2897;DHT22;1458;49.728;9.228;2022-08-03T07:42:18;23.90;67.50
2897;DHT22;1458;49.728;9.228;2022-08-03T07:44:47;23.70;68.80
2897;DHT22;1458;49.728;9.228;2022-08-03T07:47:17;23.80;67.80
2897;DHT22;1458;49.728;9.228;2022-08-03T07:49:45;24.00;66.80
2897;DHT22;1458;49.728;9.228;2022-08-03T07:52:13;24.00;67.60
2897;DHT22;1458;49.728;9.228;2022-08-03T07:54:57;24.10;66.70
2897;DHT22;1458;49.728;9.228;2022-08-03T07:57:25;24.70;64.90
2897;DHT22;1458;49.728;9.228;2022-08-03T07:59:54;25.10;64.70
2897;DHT22;1458;49.728;9.228;2022-08-03T08:02:22;25.30;62.30
2897;DHT22;1458;49.728;9.228;2022-08-03T08:04:49;25.50;61.60
2897;DHT22;1458;49.728;9.228;2022-08-03T08:07:16;25.70;61.40
2897;DHT22;1458;49.728;9.228;2022-08-03T08:09:44;25.70;59.40
2897;DHT22;1458;49.728;9.228;2022-08-03T08:12:11;25.60;59.00
2897;DHT22;1458;49.728;9.228;2022-08-03T08:14:39;25.60;59.60
2897;DHT22;1458;49.728;9.228;2022-08-03T08:17:08;25.60;58.20
2897;DHT22;1458;49.728;9.228;2022-08-03T08:19:36;25.70;58.70
2897;DHT22;1458;49.728;9.228;2022-08-03T08:22:03;25.60;59.10
2897;DHT22;1458;49.728;9.228;2022-08-03T08:24:31;25.70;58.70
2897;DHT22;1458;49.728;9.228;2022-08-03T08:26:59;25.80;58.50
2897;DHT22;1458;49.728;9.228;2022-08-03T08:29:27;25.90;57.90
2897;DHT22;1458;49.728;9.228;2022-08-03T08:31:54;26.50;57.20
2897;DHT22;1458;49.728;9.228;2022-08-03T08:34:23;26.30;55.40
2897;DHT22;1458;49.728;9.228;2022-08-03T08:36:50;26.30;54.20
2897;DHT22;1458;49.728;9.228;2022-08-03T08:39:18;26.30;52.30
2897;DHT22;1458;49.728;9.228;2022-08-03T08:41:45;26.30;51.70
2897;DHT22;1458;49.728;9.228;2022-08-03T08:44:13;26.40;52.40
2897;DHT22;1458;49.728;9.228;2022-08-03T08:46:40;26.70;52.70
2897;DHT22;1458;49.728;9.228;2022-08-03T08:49:08;26.60;50.40
2897;DHT22;1458;49.728;9.228;2022-08-03T08:51:39;26.40;51.30
2897;DHT22;1458;49.728;9.228;2022-08-03T08:54:10;26.40;50.20
2897;DHT22;1458;49.728;9.228;2022-08-03T08:56:38;26.40;48.70
2897;DHT22;1458;49.728;9.228;2022-08-03T08:59:06;26.30;50.00
2897;DHT22;1458;49.728;9.228;2022-08-03T09:01:33;26.60;51.70
2897;DHT22;1458;49.728;9.228;2022-08-03T09:04:03;26.90;50.10
2897;DHT22;1458;49.728;9.228;2022-08-03T09:06:32;26.90;48.80
2897;DHT22;1458;49.728;9.228;2022-08-03T09:09:01;26.90;49.70
2897;DHT22;1458;49.728;9.228;2022-08-03T09:11:29;26.90;50.70
2897;DHT22;1458;49.728;9.228;2022-08-03T09:13:57;27.30;50.00
2897;DHT22;1458;49.728;9.228;2022-08-03T09:16:25;27.60;46.50
2897;DHT22;1458;49.728;9.228;2022-08-03T09:18:53;27.50;45.60
2897;DHT22;1458;49.728;9.228;2022-08-03T09:21:22;27.30;45.40
2897;DHT22;1458;49.728;9.228;2022-08-03T09:23:52;27.30;45.50
2897;DHT22;1458;49.728;9.228;2022-08-03T09:26:23;27.40;45.60
2897;DHT22;1458;49.728;9.228;2022-08-03T09:28:56;27.50;45.40
2897;DHT22;1458;49.728;9.228;2022-08-03T09:31:32;28.00;43.00
2897;DHT22;1458;49.728;9.228;2022-08-03T09:34:02;28.10;41.50
2897;DHT22;1458;49.728;9.228;2022-08-03T09:36:38;28.40;41.50
2897;DHT22;1458;49.728;9.228;2022-08-03T09:39:08;28.60;39.90
2897;DHT22;1458;49.728;9.228;2022-08-03T09:41:39;28.90;40.20
2897;DHT22;1458;49.728;9.228;2022-08-03T09:44:09;29.00;41.10
2897;DHT22;1458;49.728;9.228;2022-08-03T09:46:47;29.10;38.10
2897;DHT22;1458;49.728;9.228;2022-08-03T09:49:16;29.20;37.30
2897;DHT22;1458;49.728;9.228;2022-08-03T09:51:44;28.90;35.90
2897;DHT22;1458;49.728;9.228;2022-08-03T09:54:12;28.80;35.40
2897;DHT22;1458;49.728;9.228;2022-08-03T09:56:42;29.10;36.30
2897;DHT22;1458;49.728;9.228;2022-08-03T09:59:13;29.20;38.20
2897;DHT22;1458;49.728;9.228;2022-08-03T10:01:49;29.50;34.10
2897;DHT22;1458;49.728;9.228;2022-08-03T10:04:16;29.20;33.20
2897;DHT22;1458;49.728;9.228;2022-08-03T10:06:45;29.20;33.30
2897;DHT22;1458;49.728;9.228;2022-08-03T10:09:28;29.20;32.20
2897;DHT22;1458;49.728;9.228;2022-08-03T10:12:06;29.10;33.00
2897;DHT22;1458;49.728;9.228;2022-08-03T10:14:36;29.20;31.40
2897;DHT22;1458;49.728;9.228;2022-08-03T10:17:05;29.10;31.50
2897;DHT22;1458;49.728;9.228;2022-08-03T10:19:33;29.20;30.60
2897;DHT22;1458;49.728;9.228;2022-08-03T10:22:02;29.20;31.90
2897;DHT22;1458;49.728;9.228;2022-08-03T10:24:34;29.10;30.90
2897;DHT22;1458;49.728;9.228;2022-08-03T10:27:04;29.20;31.40
2897;DHT22;1458;49.728;9.228;2022-08-03T10:29:37;29.40;31.20
2897;DHT22;1458;49.728;9.228;2022-08-03T10:32:11;29.80;31.90
2897;DHT22;1458;49.728;9.228;2022-08-03T10:34:41;30.20;30.00
2897;DHT22;1458;49.728;9.228;2022-08-03T10:37:11;30.50;30.80
2897;DHT22;1458;49.728;9.228;2022-08-03T10:39:43;30.60;28.20
2897;DHT22;1458;49.728;9.228;2022-08-03T10:42:23;30.20;28.70
2897;DHT22;1458;49.728;9.228;2022-08-03T10:44:59;29.90;29.80
2897;DHT22;1458;49.728;9.228;2022-08-03T10:47:31;30.20;28.40
2897;DHT22;1458;49.728;9.228;2022-08-03T10:49:59;29.90;28.90
2897;DHT22;1458;49.728;9.228;2022-08-03T10:52:27;30.00;27.90
2897;DHT22;1458;49.728;9.228;2022-08-03T10:54:55;29.90;27.90
2897;DHT22;1458;49.728;9.228;2022-08-03T10:57:49;30.00;29.30
2897;DHT22;1458;49.728;9.228;2022-08-03T11:00:19;30.20;28.50
2897;DHT22;1458;49.728;9.228;2022-08-03T11:03:06;30.30;28.60
2897;DHT22;1458;49.728;9.228;2022-08-03T11:05:38;30.40;27.80
2897;DHT22;1458;49.728;9.228;2022-08-03T11:08:32;30.50;27.30
2897;DHT22;1458;49.728;9.228;2022-08-03T11:11:24;30.20;27.20
2897;DHT22;1458;49.728;9.228;2022-08-03T11:13:59;30.00;27.20
2897;DHT22;1458;49.728;9.228;2022-08-03T11:16:31;30.30;27.20
2897;DHT22;1458;49.728;9.228;2022-08-03T11:19:02;30.40;28.50
2897;DHT22;1458;49.728;9.228;2022-08-03T11:21:55;30.60;28.60
2897;DHT22;1458;49.728;9.228;2022-08-03T11:27:38;30.50;27.30
2897;DHT22;1458;49.728;9.228;2022-08-03T11:30:09;30.80;28.10
2897;DHT22;1458;49.728;9.228;2022-08-03T11:32:57;30.90;27.60
2897;DHT22;1458;49.728;9.228;2022-08-03T11:35:28;30.70;26.80
2897;DHT22;1458;49.728;9.228;2022-08-03T11:38:07;30.60;27.40
2897;DHT22;1458;49.728;9.228;2022-08-03T11:40:39;31.00;27.70
2897;DHT22;1458;49.728;9.228;2022-08-03T11:43:09;31.20;26.60
2897;DHT22;1458;49.728;9.228;2022-08-03T11:46:14;31.00;26.50
2897;DHT22;1458;49.728;9.228;2022-08-03T11:48:47;31.10;27.00
2897;DHT22;1458;49.728;9.228;2022-08-03T11:51:20;31.10;26.00
2897;DHT22;1458;49.728;9.228;2022-08-03T11:53:53;31.10;25.70
2897;DHT22;1458;49.728;9.228;2022-08-03T11:56:21;31.00;26.20
2897;DHT22;1458;49.728;9.228;2022-08-03T11:58:51;31.00;25.60
2897;DHT22;1458;49.728;9.228;2022-08-03T12:01:23;30.90;25.40
2897;DHT22;1458;49.728;9.228;2022-08-03T12:03:51;30.90;25.70
2897;DHT22;1458;49.728;9.228;2022-08-03T12:06:19;30.90;26.30
2897;DHT22;1458;49.728;9.228;2022-08-03T12:08:46;31.00;25.20
2897;DHT22;1458;49.728;9.228;2022-08-03T12:11:15;31.00;25.90
2897;DHT22;1458;49.728;9.228;2022-08-03T12:13:44;30.90;26.10
2897;DHT22;1458;49.728;9.228;2022-08-03T12:16:17;31.20;25.40
2897;DHT22;1458;49.728;9.228;2022-08-03T12:18:54;31.00;25.80
2897;DHT22;1458;49.728;9.228;2022-08-03T12:21:22;30.90;25.50
2897;DHT22;1458;49.728;9.228;2022-08-03T12:23:50;30.90;27.60
2897;DHT22;1458;49.728;9.228;2022-08-03T12:26:23;31.50;28.10
2897;DHT22;1458;49.728;9.228;2022-08-03T12:28:51;32.00;25.10
2897;DHT22;1458;49.728;9.228;2022-08-03T12:31:19;32.00;25.00
2897;DHT22;1458;49.728;9.228;2022-08-03T12:34:02;32.00;25.10
2897;DHT22;1458;49.728;9.228;2022-08-03T12:36:33;31.80;24.40
2897;DHT22;1458;49.728;9.228;2022-08-03T12:39:04;31.70;24.30
2897;DHT22;1458;49.728;9.228;2022-08-03T12:41:35;31.60;24.60
2897;DHT22;1458;49.728;9.228;2022-08-03T12:44:04;32.00;26.30
2897;DHT22;1458;49.728;9.228;2022-08-03T12:46:36;32.30;25.00
2897;DHT22;1458;49.728;9.228;2022-08-03T12:49:08;32.30;22.80
2897;DHT22;1458;49.728;9.228;2022-08-03T12:51:54;32.50;23.80
2897;DHT22;1458;49.728;9.228;2022-08-03T12:54:24;32.30;23.60
2897;DHT22;1458;49.728;9.228;2022-08-03T12:57:00;32.50;23.70
2897;DHT22;1458;49.728;9.228;2022-08-03T12:59:30;32.30;23.20
2897;DHT22;1458;49.728;9.228;2022-08-03T13:01:59;32.40;23.60
2897;DHT22;1458;49.728;9.228;2022-08-03T13:04:31;32.70;23.40
2897;DHT22;1458;49.728;9.228;2022-08-03T13:07:01;32.90;23.20
2897;DHT22;1458;49.728;9.228;2022-08-03T13:09:39;32.50;22.10
2897;DHT22;1458;49.728;9.228;2022-08-03T13:12:09;32.30;22.30
2897;DHT22;1458;49.728;9.228;2022-08-03T13:14:40;32.30;21.40
2897;DHT22;1458;49.728;9.228;2022-08-03T13:17:08;31.90;22.00
2897;DHT22;1458;49.728;9.228;2022-08-03T13:19:38;31.90;24.80
2897;DHT22;1458;49.728;9.228;2022-08-03T13:22:10;32.30;23.70
2897;DHT22;1458;49.728;9.228;2022-08-03T13:24:39;32.40;24.00
2897;DHT22;1458;49.728;9.228;2022-08-03T13:27:07;32.20;23.00
2897;DHT22;1458;49.728;9.228;2022-08-03T13:29:35;32.20;22.90
2897;DHT22;1458;49.728;9.228;2022-08-03T13:32:04;32.20;22.90
2897;DHT22;1458;49.728;9.228;2022-08-03T13:34:32;32.40;23.30
2897;DHT22;1458;49.728;9.228;2022-08-03T13:37:01;32.60;22.50
2897;DHT22;1458;49.728;9.228;2022-08-03T13:39:29;33.10;24.00
2897;DHT22;1458;49.728;9.228;2022-08-03T13:41:56;33.10;22.60
2897;DHT22;1458;49.728;9.228;2022-08-03T13:44:24;32.90;22.60
2897;DHT22;1458;49.728;9.228;2022-08-03T13:46:52;32.50;20.90
2897;DHT22;1458;49.728;9.228;2022-08-03T13:49:19;32.20;22.50
2897;DHT22;1458;49.728;9.228;2022-08-03T13:51:47;32.10;22.90
2897;DHT22;1458;49.728;9.228;2022-08-03T13:54:17;32.30;23.00
2897;DHT22;1458;49.728;9.228;2022-08-03T13:56:45;32.30;23.90
2897;DHT22;1458;49.728;9.228;2022-08-03T13:59:17;32.30;22.00
2897;DHT22;1458;49.728;9.228;2022-08-03T14:01:45;32.60;23.50
2897;DHT22;1458;49.728;9.228;2022-08-03T14:04:13;32.40;22.00
2897;DHT22;1458;49.728;9.228;2022-08-03T14:06:41;32.40;22.60
2897;DHT22;1458;49.728;9.228;2022-08-03T14:09:10;32.30;23.00
2897;DHT22;1458;49.728;9.228;2022-08-03T14:11:39;32.40;22.60
2897;DHT22;1458;49.728;9.228;2022-08-03T14:14:07;32.60;24.10
2897;DHT22;1458;49.728;9.228;2022-08-03T14:16:35;32.60;22.60
2897;DHT22;1458;49.728;9.228;2022-08-03T14:19:03;32.50;20.90
2897;DHT22;1458;49.728;9.228;2022-08-03T14:21:32;32.30;21.60
2897;DHT22;1458;49.728;9.228;2022-08-03T14:24:00;32.30;23.60
2897;DHT22;1458;49.728;9.228;2022-08-03T14:26:28;32.70;22.40
2897;DHT22;1458;49.728;9.228;2022-08-03T14:28:58;32.90;21.80
2897;DHT22;1458;49.728;9.228;2022-08-03T14:31:25;32.90;22.80
2897;DHT22;1458;49.728;9.228;2022-08-03T14:33:53;33.20;22.40
2897;DHT22;1458;49.728;9.228;2022-08-03T14:36:20;33.20;20.60
2897;DHT22;1458;49.728;9.228;2022-08-03T14:38:47;33.10;21.80
2897;DHT22;1458;49.728;9.228;2022-08-03T14:41:15;32.90;21.60
2897;DHT22;1458;49.728;9.228;2022-08-03T14:43:43;32.70;20.70
2897;DHT22;1458;49.728;9.228;2022-08-03T14:46:12;32.50;20.90
2897;DHT22;1458;49.728;9.228;2022-08-03T14:48:39;32.40;22.00
2897;DHT22;1458;49.728;9.228;2022-08-03T14:51:06;32.40;21.40
2897;DHT22;1458;49.728;9.228;2022-08-03T14:53:35;32.30;21.30
2897;DHT22;1458;49.728;9.228;2022-08-03T14:56:05;32.20;22.50
2897;DHT22;1458;49.728;9.228;2022-08-03T14:58:33;32.60;22.90
2897;DHT22;1458;49.728;9.228;2022-08-03T15:01:01;32.80;22.00
2897;DHT22;1458;49.728;9.228;2022-08-03T15:03:33;32.90;20.20
2897;DHT22;1458;49.728;9.228;2022-08-03T15:06:01;32.50;20.20
2897;DHT22;1458;49.728;9.228;2022-08-03T15:08:31;32.30;21.80
2897;DHT22;1458;49.728;9.228;2022-08-03T15:11:00;32.50;21.60
2897;DHT22;1458;49.728;9.228;2022-08-03T15:13:31;32.60;21.50
2897;DHT22;1458;49.728;9.228;2022-08-03T15:15:58;32.60;21.50
2897;DHT22;1458;49.728;9.228;2022-08-03T15:18:36;32.50;22.50
2897;DHT22;1458;49.728;9.228;2022-08-03T15:21:07;32.50;22.70
2897;DHT22;1458;49.728;9.228;2022-08-03T15:23:35;32.60;21.30
2897;DHT22;1458;49.728;9.228;2022-08-03T15:26:05;32.50;21.70
2897;DHT22;1458;49.728;9.228;2022-08-03T15:28:33;32.60;21.50
2897;DHT22;1458;49.728;9.228;2022-08-03T15:31:00;32.60;21.10
2897;DHT22;1458;49.728;9.228;2022-08-03T15:33:32;32.70;21.10
2897;DHT22;1458;49.728;9.228;2022-08-03T15:36:04;32.80;21.30
2897;DHT22;1458;49.728;9.228;2022-08-03T15:38:32;32.60;21.10
2897;DHT22;1458;49.728;9.228;2022-08-03T15:41:06;32.60;21.50
2897;DHT22;1458;49.728;9.228;2022-08-03T15:43:35;32.60;20.40
2897;DHT22;1458;49.728;9.228;2022-08-03T15:46:03;32.50;20.70
2897;DHT22;1458;49.728;9.228;2022-08-03T15:48:31;32.60;20.90
2897;DHT22;1458;49.728;9.228;2022-08-03T15:50:59;32.40;20.60
2897;DHT22;1458;49.728;9.228;2022-08-03T15:53:31;32.40;20.80
2897;DHT22;1458;49.728;9.228;2022-08-03T15:55:59;32.40;20.50
2897;DHT22;1458;49.728;9.228;2022-08-03T15:58:30;32.50;20.70
2897;DHT22;1458;49.728;9.228;2022-08-03T16:00:58;32.60;21.30
2897;DHT22;1458;49.728;9.228;2022-08-03T16:03:27;32.40;20.40
2897;DHT22;1458;49.728;9.228;2022-08-03T16:06:01;32.30;20.50
2897;DHT22;1458;49.728;9.228;2022-08-03T16:08:33;32.30;21.60
2897;DHT22;1458;49.728;9.228;2022-08-03T16:11:00;32.30;20.10
2897;DHT22;1458;49.728;9.228;2022-08-03T16:13:38;32.20;20.00
2897;DHT22;1458;49.728;9.228;2022-08-03T16:16:05;32.20;20.60
2897;DHT22;1458;49.728;9.228;2022-08-03T16:18:33;32.10;20.70
2897;DHT22;1458;49.728;9.228;2022-08-03T16:21:05;32.00;21.30
2897;DHT22;1458;49.728;9.228;2022-08-03T16:23:32;32.00;21.10
2897;DHT22;1458;49.728;9.228;2022-08-03T16:26:06;32.00;21.10